YNAN weather

Nanango Airport
Queensland, Australia

Public forecast

Using degrees Celsius for public forecast. Weather courtesy of forecast.io.

METAR (pilot weather report)

Closest report is Kingaroy Airport, 10.1 nm (18.6 km) NW. Retrieved 2019/02/19 23:00 UTC (29 minutes ago):

YKRY 192300Z AUTO 15006KT 100V190 9999 // SCT019 26/18 Q1011

TAF (pilot weather forecast)

Forecast is more than 12 hours old.

Closest forecast is RAAF Base Amberley, 69.1 nm (128.0 km) SE. Retrieved 2019/02/19 06:00 UTC (17 hours ago):

TAF YAMB 190533Z 1906/1924 06015KT CAVOK FM191000 09008KT 9999 FEW020 FM191500 VRB03KT 9999 SCT020